createdAt,value
2023-04-28T00:00:39.208Z,97338.81
2023-04-28T00:03:24.800Z,97330.59
2023-04-28T00:06:11.473Z,97336.91
2023-04-28T00:08:56.852Z,97332.72
2023-04-28T00:11:45.129Z,97326.91
2023-04-28T00:14:30.964Z,97322.91
2023-04-28T00:17:17.331Z,97319.72
2023-04-28T00:20:03.475Z,97313.28
2023-04-28T00:22:50.480Z,97310.47
2023-04-28T00:25:35.942Z,97311.75
2023-04-28T00:28:33.495Z,97313.19
2023-04-28T00:31:20.321Z,97306.09
2023-04-28T00:34:05.626Z,97311.97
2023-04-28T00:36:51.019Z,97306.38
2023-04-28T00:39:38.355Z,97307.59
2023-04-28T00:42:24.368Z,97301.97
2023-04-28T00:45:10.182Z,97300.81
2023-04-28T00:47:58.671Z,97306.47
2023-04-28T00:50:45.540Z,97308.09
2023-04-28T00:53:31.673Z,97303.47
2023-04-28T00:56:17.278Z,97300.06
2023-04-28T00:59:03.445Z,97299.31
2023-04-28T01:01:50.199Z,97295.31
2023-04-28T01:04:36.243Z,97284.41
2023-04-28T01:07:22.451Z,97282.03
2023-04-28T01:10:08.910Z,97271.16
2023-04-28T01:12:54.713Z,97276.00
2023-04-28T01:15:40.293Z,97280.88
2023-04-28T01:18:26.072Z,97270.59
2023-04-28T01:21:11.947Z,97273.84
2023-04-28T01:23:58.196Z,97273.47
2023-04-28T01:26:44.600Z,97270.66
2023-04-28T01:29:29.982Z,97277.13
2023-04-28T01:32:15.437Z,97278.56
2023-04-28T01:35:01.117Z,97271.91
2023-04-28T01:37:46.719Z,97277.78
2023-04-28T01:40:32.485Z,97281.63
2023-04-28T01:43:17.912Z,97272.56
2023-04-28T01:46:03.463Z,97274.00
2023-04-28T01:48:50.469Z,97269.34
2023-04-28T01:51:35.908Z,97274.44
2023-04-28T01:54:21.424Z,97269.97
2023-04-28T01:57:07.920Z,97274.84
2023-04-28T01:59:54.258Z,97273.03
2023-04-28T02:02:40.275Z,97271.38
2023-04-28T02:05:26.140Z,97264.34
2023-04-28T02:08:11.838Z,97266.75
2023-04-28T02:10:58.169Z,97269.19
2023-04-28T02:13:44.645Z,97259.28
2023-04-28T02:16:30.248Z,97257.66
2023-04-28T02:19:16.308Z,97258.47
2023-04-28T02:22:01.472Z,97263.72
2023-04-28T02:24:46.932Z,97270.81
2023-04-28T02:27:32.356Z,97272.63
2023-04-28T02:30:17.975Z,97255.03
2023-04-28T02:33:03.507Z,97257.03
2023-04-28T02:35:59.421Z,97263.94
2023-04-28T02:38:45.006Z,97266.34
2023-04-28T02:41:31.227Z,97257.47
2023-04-28T02:44:16.851Z,97252.84
2023-04-28T02:47:02.635Z,97252.84
2023-04-28T02:49:48.542Z,97247.38
2023-04-28T02:52:34.669Z,97249.78
2023-04-28T02:55:24.167Z,97249.00
2023-04-28T02:58:11.565Z,97240.53
2023-04-28T03:00:57.049Z,97243.16
2023-04-28T03:03:42.684Z,97244.78
2023-04-28T03:06:28.423Z,97239.31
2023-04-28T03:09:14.050Z,97239.13
2023-04-28T03:11:59.611Z,97233.66
2023-04-28T03:14:45.086Z,97222.97
2023-04-28T03:17:30.583Z,97229.81
2023-04-28T03:20:16.476Z,97220.13
2023-04-28T03:23:02.691Z,97216.50
2023-04-28T03:25:48.783Z,97212.84
2023-04-28T03:28:34.417Z,97212.84
2023-04-28T03:31:19.819Z,97214.88
2023-04-28T03:34:05.236Z,97208.38
2023-04-28T03:36:50.796Z,97207.56
2023-04-28T03:39:44.716Z,97218.09
2023-04-28T03:42:30.200Z,97215.66
2023-04-28T03:45:27.156Z,97214.84
2023-04-28T03:48:13.094Z,97214.66
2023-04-28T03:50:58.621Z,97204.72
2023-04-28T03:53:44.707Z,97206.16
2023-04-28T03:56:30.785Z,97212.84
2023-04-28T03:59:16.764Z,97202.34
2023-04-28T04:02:02.144Z,97198.69
2023-04-28T04:04:48.044Z,97195.03
2023-04-28T04:07:33.452Z,97198.69
2023-04-28T04:10:19.006Z,97207.19
2023-04-28T04:13:04.421Z,97200.91
2023-04-28T04:15:50.771Z,97203.13
2023-04-28T04:18:36.710Z,97204.38
2023-04-28T04:21:38.906Z,97215.91
2023-04-28T04:24:24.159Z,97216.13
2023-04-28T04:27:09.528Z,97207.63
2023-04-28T04:29:58.367Z,97213.13
2023-04-28T04:32:45.516Z,97215.94
2023-04-28T04:35:31.876Z,97215.53
2023-04-28T04:38:17.526Z,97215.13
2023-04-28T04:41:02.929Z,97207.88
2023-04-28T04:43:48.593Z,97217.75
2023-04-28T04:46:34.248Z,97215.38
2023-04-28T04:49:19.691Z,97212.09
2023-04-28T04:52:06.717Z,97212.13
2023-04-28T04:54:52.567Z,97212.09
2023-04-28T04:57:38.369Z,97207.84
2023-04-28T05:00:23.993Z,97203.59
2023-04-28T05:03:12.158Z,97198.53
2023-04-28T05:05:59.402Z,97194.47
2023-04-28T05:08:51.867Z,97210.44
2023-04-28T05:11:37.560Z,97200.13
2023-04-28T05:14:22.788Z,97193.22
2023-04-28T05:17:09.745Z,97191.00
2023-04-28T05:19:57.449Z,97190.59
2023-04-28T05:22:43.322Z,97187.50
2023-04-28T05:25:28.997Z,97182.19
2023-04-28T05:28:14.417Z,97185.22
2023-04-28T05:31:01.760Z,97182.31
2023-04-28T05:33:48.739Z,97162.84
2023-04-28T05:36:34.304Z,97166.03
2023-04-28T05:39:19.799Z,97165.56
2023-04-28T05:42:05.200Z,97159.63
2023-04-28T05:44:50.499Z,97156.28
2023-04-28T05:47:36.788Z,97155.59
2023-04-28T05:50:22.531Z,97159.00
2023-04-28T05:53:09.130Z,97162.38
2023-04-28T05:55:54.441Z,97169.25
2023-04-28T05:58:39.839Z,97164.06
2023-04-28T06:01:25.251Z,97157.25
2023-04-28T06:04:11.093Z,97152.88
2023-04-28T06:06:56.756Z,97148.50
2023-04-28T06:09:43.731Z,97146.59
2023-04-28T06:12:29.193Z,97148.94
2023-04-28T06:15:14.798Z,97143.75
2023-04-28T06:18:00.936Z,97137.94
2023-04-28T06:20:46.519Z,97138.69
2023-04-28T06:23:32.283Z,97146.09
2023-04-28T06:26:18.536Z,97150.25
2023-04-28T06:29:04.416Z,97147.53
2023-04-28T06:31:50.091Z,97149.09
2023-04-28T06:34:35.869Z,97139.47
2023-04-28T06:37:21.768Z,97148.25
2023-04-28T06:40:08.847Z,97146.91
2023-04-28T06:42:57.009Z,97143.91
2023-04-28T06:45:49.668Z,97142.81
2023-04-28T06:48:35.515Z,97137.63
2023-04-28T06:51:21.354Z,97140.75
2023-04-28T06:54:07.311Z,97136.72
2023-04-28T06:56:52.716Z,97131.91
2023-04-28T06:59:38.288Z,97127.84
2023-04-28T07:02:23.838Z,97123.00
2023-04-28T07:05:09.893Z,97125.66
2023-04-28T07:07:55.652Z,97121.28
2023-04-28T07:10:40.927Z,97116.88
2023-04-28T07:13:26.718Z,97110.19
2023-04-28T07:16:12.400Z,97110.19
2023-04-28T07:18:57.767Z,97122.00
2023-04-28T07:21:43.252Z,97117.38
2023-04-28T07:24:29.087Z,97115.97
2023-04-28T07:27:14.425Z,97122.53
2023-04-28T07:30:03.027Z,97116.88
2023-04-28T07:32:51.893Z,97121.22
2023-04-28T07:35:37.856Z,97118.66
2023-04-28T07:38:23.745Z,97115.78
2023-04-28T07:41:11.166Z,97110.78
2023-04-28T07:43:57.266Z,97103.97
2023-04-28T07:46:42.954Z,97104.06
2023-04-28T07:49:31.712Z,97101.47
2023-04-28T07:52:17.256Z,97110.09
2023-04-28T07:55:03.559Z,97111.78
2023-04-28T07:57:49.621Z,97106.66
2023-04-28T08:00:35.354Z,97107.06
2023-04-28T08:03:21.815Z,97101.09
2023-04-28T08:06:07.591Z,97096.97
2023-04-28T08:08:53.089Z,97090.78
2023-04-28T08:11:38.593Z,97092.78
2023-04-28T08:14:24.016Z,97088.41
2023-04-28T08:17:09.520Z,97086.47
2023-04-28T08:19:55.005Z,97081.75
2023-04-28T08:22:40.817Z,97056.44
2023-04-28T08:25:26.568Z,97057.59
2023-04-28T08:28:11.972Z,97061.72
2023-04-28T08:30:58.619Z,97073.28
2023-04-28T08:33:44.847Z,97080.00
2023-04-28T08:36:32.654Z,97078.78
2023-04-28T08:39:20.342Z,97074.06
2023-04-28T08:42:06.105Z,97074.09
2023-04-28T08:44:59.315Z,97072.06
2023-04-28T08:47:49.661Z,97064.66
2023-04-28T08:50:37.211Z,97066.31
2023-04-28T08:53:26.015Z,97063.13
2023-04-28T08:56:15.100Z,97071.13
2023-04-28T08:59:05.065Z,97074.59
2023-04-28T09:01:51.058Z,97062.06
2023-04-28T09:04:37.040Z,97062.06
2023-04-28T09:07:23.174Z,97070.06
2023-04-28T09:10:26.557Z,97061.78
2023-04-28T09:13:25.199Z,97069.47
2023-04-28T09:16:11.757Z,97079.03
2023-04-28T09:18:58.078Z,97076.63
2023-04-28T09:22:05.679Z,97074.44
2023-04-28T09:24:56.305Z,97066.16
2023-04-28T09:27:42.101Z,97065.88
2023-04-28T09:30:40.377Z,97070.41
2023-04-28T09:33:26.441Z,97062.91
2023-04-28T09:36:11.661Z,97062.09
2023-04-28T09:39:01.155Z,97070.59
2023-04-28T09:41:46.781Z,97078.81
2023-04-28T09:44:32.525Z,97072.94
2023-04-28T09:47:24.824Z,97065.47
2023-04-28T09:50:14.898Z,97072.91
2023-04-28T09:53:01.039Z,97067.84
2023-04-28T09:55:47.471Z,97065.44
2023-04-28T09:58:37.195Z,97064.59
2023-04-28T10:01:22.984Z,97058.50
2023-04-28T10:04:11.931Z,97040.91
2023-04-28T10:06:57.930Z,97044.38
2023-04-28T10:09:50.194Z,97048.63
2023-04-28T10:12:38.738Z,97055.31
2023-04-28T10:15:24.881Z,97053.22
2023-04-28T10:18:12.209Z,97056.44
2023-04-28T10:21:03.872Z,97073.75
2023-04-28T10:23:55.247Z,97065.78
2023-04-28T10:27:05.739Z,97066.56
2023-04-28T10:29:51.417Z,97057.78
2023-04-28T10:32:37.084Z,97052.47
2023-04-28T10:35:23.607Z,97050.84
2023-04-28T10:38:16.615Z,97034.88
2023-04-28T10:41:03.428Z,97029.03
2023-04-28T10:43:49.855Z,97030.44
2023-04-28T10:47:02.205Z,97041.34
2023-04-28T10:50:01.249Z,97045.91
2023-04-28T10:52:46.788Z,97050.75
2023-04-28T10:55:40.109Z,97055.03
2023-04-28T10:58:28.909Z,97050.50
2023-04-28T11:01:32.357Z,97034.78
2023-04-28T11:04:18.233Z,97025.94
2023-04-28T11:07:11.288Z,97046.94
2023-04-28T11:09:56.469Z,97046.63
2023-04-28T11:13:19.574Z,97049.28
2023-04-28T11:16:06.268Z,97048.75
2023-04-28T11:18:56.183Z,97052.22
2023-04-28T11:21:41.869Z,97060.16
2023-04-28T11:24:32.167Z,97066.44
2023-04-28T11:27:27.141Z,97061.28
2023-04-28T11:30:22.808Z,97046.03
2023-04-28T11:33:09.676Z,97047.22
2023-04-28T11:35:55.272Z,97047.91
2023-04-28T11:38:45.197Z,97033.88
2023-04-28T11:41:32.148Z,97049.25
2023-04-28T11:44:21.505Z,97043.63
2023-04-28T11:47:07.597Z,97029.75
2023-04-28T11:49:53.271Z,97032.34
2023-04-28T11:52:50.832Z,97029.06
2023-04-28T11:55:38.821Z,97031.72
2023-04-28T11:58:25.219Z,97014.50
2023-04-28T12:01:12.046Z,97007.63
2023-04-28T12:03:57.803Z,97021.22
2023-04-28T12:06:43.746Z,97022.84
2023-04-28T12:09:29.782Z,97004.16
2023-04-28T12:12:40.003Z,97003.28
2023-04-28T12:15:40.989Z,96997.34
2023-04-28T12:18:27.230Z,96983.53
2023-04-28T12:21:21.550Z,96987.50
2023-04-28T12:24:21.704Z,96982.22
2023-04-28T12:27:25.116Z,96980.69
2023-04-28T12:30:19.671Z,96981.88
2023-04-28T12:33:05.459Z,96988.31
2023-04-28T12:35:51.141Z,96988.63
2023-04-28T12:38:47.148Z,96982.84
2023-04-28T12:41:32.443Z,96989.50
2023-04-28T12:44:18.010Z,96983.44
2023-04-28T12:47:05.867Z,96978.44
2023-04-28T12:49:53.138Z,96975.53
2023-04-28T12:52:38.709Z,96973.50
2023-04-28T12:55:24.605Z,96973.00
2023-04-28T12:58:10.335Z,96976.16
2023-04-28T13:00:55.955Z,96972.94
2023-04-28T13:03:41.569Z,96966.56
2023-04-28T13:06:28.778Z,96958.91
2023-04-28T13:09:15.407Z,96972.19
2023-04-28T13:12:01.554Z,96962.91
2023-04-28T13:14:47.348Z,96964.25
2023-04-28T13:17:32.571Z,96965.88
2023-04-28T13:20:17.945Z,96967.22
2023-04-28T13:23:03.579Z,96965.91
2023-04-28T13:25:50.376Z,96973.16
2023-04-28T13:28:36.397Z,96969.44
2023-04-28T13:31:22.094Z,96966.53
2023-04-28T13:34:08.821Z,96967.88
2023-04-28T13:36:55.541Z,96967.63
2023-04-28T13:39:41.467Z,96954.63
2023-04-28T13:42:27.766Z,96957.84
2023-04-28T13:45:16.158Z,96953.59
2023-04-28T13:48:04.032Z,96945.69
2023-04-28T13:50:49.464Z,96950.22
2023-04-28T13:53:39.611Z,96944.66
2023-04-28T13:56:25.292Z,96952.09
2023-04-28T13:59:10.845Z,96951.50
2023-04-28T14:01:56.275Z,96945.56
2023-04-28T14:04:48.422Z,96948.78
2023-04-28T14:07:34.389Z,96948.53
2023-04-28T14:10:19.873Z,96949.28
2023-04-28T14:13:05.583Z,96940.53
2023-04-28T14:15:58.948Z,96938.91
2023-04-28T14:18:44.879Z,96931.19
2023-04-28T14:21:31.118Z,96926.06
2023-04-28T14:24:20.312Z,96927.38
2023-04-28T14:27:06.192Z,96922.59
2023-04-28T14:29:51.710Z,96928.50
2023-04-28T14:32:39.880Z,96919.44
2023-04-28T14:35:26.945Z,96917.59
2023-04-28T14:38:13.749Z,96917.31
2023-04-28T14:40:59.280Z,96917.03
2023-04-28T14:43:44.997Z,96911.41
2023-04-28T14:46:31.019Z,96909.28
2023-04-28T14:49:16.575Z,96910.81
2023-04-28T14:52:02.564Z,96907.63
2023-04-28T14:54:51.951Z,96904.41
2023-04-28T14:57:37.863Z,96903.84
2023-04-28T15:00:23.019Z,96899.56
2023-04-28T15:03:08.988Z,96887.34
2023-04-28T15:05:54.821Z,96878.03
2023-04-28T15:08:40.652Z,96882.53
2023-04-28T15:11:26.751Z,96881.97
2023-04-28T15:14:12.400Z,96880.84
2023-04-28T15:16:57.936Z,96876.06
2023-04-28T15:19:43.737Z,96874.16
2023-04-28T15:22:29.147Z,96884.22
2023-04-28T15:25:15.558Z,96874.31
2023-04-28T15:28:01.275Z,96873.81
2023-04-28T15:30:46.632Z,96877.50
2023-04-28T15:33:32.282Z,96861.56
2023-04-28T15:36:19.846Z,96857.03
2023-04-28T15:39:08.646Z,96859.44
2023-04-28T15:41:54.242Z,96863.97
2023-04-28T15:44:40.051Z,96865.00
2023-04-28T15:47:25.514Z,96865.81
2023-04-28T15:50:11.652Z,96863.41
2023-04-28T15:52:58.135Z,96866.88
2023-04-28T15:55:44.374Z,96859.13
2023-04-28T15:58:29.941Z,96859.38
2023-04-28T16:01:15.931Z,96860.44
2023-04-28T16:04:01.780Z,96858.84
2023-04-28T16:06:48.068Z,96859.91
2023-04-28T16:09:33.633Z,96852.97
2023-04-28T16:12:19.952Z,96847.09
2023-04-28T16:15:07.105Z,96837.53
2023-04-28T16:17:52.762Z,96834.88
2023-04-28T16:20:38.584Z,96837.78
2023-04-28T16:23:24.049Z,96836.16
2023-04-28T16:26:09.482Z,96836.44
2023-04-28T16:28:54.852Z,96837.47
2023-04-28T16:31:40.300Z,96841.19
2023-04-28T16:34:25.793Z,96836.91
2023-04-28T16:37:11.702Z,96829.19
2023-04-28T16:39:57.398Z,96831.06
2023-04-28T16:42:44.982Z,96833.97
2023-04-28T16:45:30.479Z,96844.06
2023-04-28T16:48:18.426Z,96857.34
2023-04-28T16:51:08.308Z,96866.34
2023-04-28T16:53:53.940Z,96858.66
2023-04-28T16:56:40.652Z,96854.13
2023-04-28T16:59:29.580Z,96849.06
2023-04-28T17:02:15.348Z,96849.31
2023-04-28T17:05:00.814Z,96858.34
2023-04-28T17:07:46.348Z,96855.91
2023-04-28T17:10:32.330Z,96841.84
2023-04-28T17:13:18.209Z,96843.94
2023-04-28T17:16:04.316Z,96831.16
2023-04-28T17:18:52.458Z,96838.31
2023-04-28T17:21:38.490Z,96835.13
2023-04-28T17:24:23.898Z,96841.47
2023-04-28T17:27:09.813Z,96835.59
2023-04-28T17:29:55.498Z,96832.66
2023-04-28T17:32:41.567Z,96840.88
2023-04-28T17:35:27.540Z,96844.56
2023-04-28T17:38:13.183Z,96839.78
2023-04-28T17:40:58.663Z,96829.38
2023-04-28T17:43:44.291Z,96824.31
2023-04-28T17:46:29.877Z,96828.03
2023-04-28T17:49:16.334Z,96831.97
2023-04-28T17:52:01.911Z,96827.72
2023-04-28T17:54:47.210Z,96826.09
2023-04-28T17:57:32.777Z,96820.00
2023-04-28T18:00:18.266Z,96827.66
2023-04-28T18:03:03.983Z,96827.34
2023-04-28T18:05:50.414Z,96828.41
2023-04-28T18:08:36.849Z,96827.88
2023-04-28T18:11:23.442Z,96828.91
2023-04-28T18:14:09.225Z,96819.34
2023-04-28T18:16:54.611Z,96829.97
2023-04-28T18:19:40.364Z,96841.63
2023-04-28T18:22:26.174Z,96839.69
2023-04-28T18:25:13.412Z,96846.88
2023-04-28T18:27:59.353Z,96838.09
2023-04-28T18:30:45.016Z,96842.03
2023-04-28T18:33:30.505Z,96843.13
2023-04-28T18:36:16.058Z,96837.00
2023-04-28T18:39:04.188Z,96836.44
2023-04-28T18:41:50.405Z,96837.50
2023-04-28T18:44:35.928Z,96834.28
2023-04-28T18:47:21.675Z,96835.06
2023-04-28T18:50:08.673Z,96832.66
2023-04-28T18:52:54.222Z,96833.47
2023-04-28T18:55:39.989Z,96832.94
2023-04-28T18:58:25.622Z,96827.63
2023-04-28T19:01:17.904Z,96832.34
2023-04-28T19:04:04.285Z,96827.06
2023-04-28T19:06:50.084Z,96831.00
2023-04-28T19:09:35.377Z,96831.25
2023-04-28T19:12:20.996Z,96836.00
2023-04-28T19:15:07.100Z,96839.94
2023-04-28T19:17:56.021Z,96844.47
2023-04-28T19:20:42.125Z,96837.75
2023-04-28T19:23:28.517Z,96843.84
2023-04-28T19:26:14.243Z,96843.25
2023-04-28T19:28:59.969Z,96846.97
2023-04-28T19:31:45.965Z,96853.81
2023-04-28T19:34:31.693Z,96856.72
2023-04-28T19:37:17.680Z,96854.28
2023-04-28T19:40:07.220Z,96852.69
2023-04-28T19:42:52.732Z,96854.78
2023-04-28T19:45:38.912Z,96855.84
2023-04-28T19:48:26.184Z,96867.47
2023-04-28T19:51:11.593Z,96862.19
2023-04-28T19:53:57.653Z,96867.47
2023-04-28T19:56:43.300Z,96860.56
2023-04-28T19:59:28.819Z,96851.81
2023-04-28T20:02:16.510Z,96843.03
2023-04-28T20:05:02.371Z,96856.31
2023-04-28T20:07:48.707Z,96855.25
2023-04-28T20:10:34.270Z,96851.81
2023-04-28T20:13:19.797Z,96855.84
2023-04-28T20:16:05.829Z,96853.19
2023-04-28T20:18:51.562Z,96854.78
2023-04-28T20:21:37.401Z,96860.09
2023-04-28T20:24:23.116Z,96859.84
2023-04-28T20:27:09.494Z,96857.97
2023-04-28T20:29:55.124Z,96864.91
2023-04-28T20:32:40.818Z,96872.06
2023-04-28T20:35:26.685Z,96872.84
2023-04-28T20:38:12.401Z,96862.25
2023-04-28T20:40:59.269Z,96869.41
2023-04-28T20:43:45.744Z,96864.91
2023-04-28T20:46:32.024Z,96872.31
2023-04-28T20:49:17.352Z,96874.16
2023-04-28T20:52:05.713Z,96869.09
2023-04-28T20:54:52.250Z,96872.78
2023-04-28T20:57:37.638Z,96869.34
2023-04-28T21:00:23.367Z,96872.78
2023-04-28T21:03:15.187Z,96867.47
2023-04-28T21:06:01.224Z,96865.63
2023-04-28T21:08:48.037Z,96870.94
2023-04-28T21:11:33.582Z,96871.75
2023-04-28T21:14:19.533Z,96869.88
2023-04-28T21:17:05.576Z,96877.63
2023-04-28T21:19:51.626Z,96875.19
2023-04-28T21:22:37.339Z,96869.09
2023-04-28T21:25:23.174Z,96871.75
2023-04-28T21:28:08.437Z,96872.00
2023-04-28T21:30:54.528Z,96878.09
2023-04-28T21:33:40.163Z,96878.09
2023-04-28T21:36:25.565Z,96878.88
2023-04-28T21:39:11.137Z,96888.47
2023-04-28T21:41:56.645Z,96881.31
2023-04-28T21:44:42.223Z,96878.66
2023-04-28T21:47:28.369Z,96881.06
2023-04-28T21:50:14.457Z,96887.41
2023-04-28T21:52:59.913Z,96877.84
2023-04-28T21:55:45.261Z,96878.34
2023-04-28T21:58:31.281Z,96875.69
2023-04-28T22:01:18.131Z,96885.47
2023-04-28T22:04:07.324Z,96877.53
2023-04-28T22:06:52.872Z,96877.53
2023-04-28T22:09:38.666Z,96882.59
2023-04-28T22:12:24.151Z,96878.09
2023-04-28T22:15:10.311Z,96880.50
2023-04-28T22:17:56.298Z,96873.59
2023-04-28T22:20:41.608Z,96873.84
2023-04-28T22:23:27.096Z,96865.88
2023-04-28T22:26:12.380Z,96865.88
2023-04-28T22:28:57.864Z,96864.84
2023-04-28T22:31:43.524Z,96852.34
2023-04-28T22:34:29.037Z,96858.47
2023-04-28T22:37:15.068Z,96856.41
2023-04-28T22:40:00.688Z,96864.34
2023-04-28T22:42:46.603Z,96856.16
2023-04-28T22:45:32.281Z,96864.91
2023-04-28T22:48:17.595Z,96856.72
2023-04-28T22:51:03.051Z,96865.47
2023-04-28T22:53:48.688Z,96853.81
2023-04-28T22:56:34.449Z,96858.63
2023-04-28T22:59:19.999Z,96851.47
2023-04-28T23:02:06.234Z,96860.78
2023-04-28T23:04:51.954Z,96849.13
2023-04-28T23:07:37.433Z,96854.75
2023-04-28T23:10:22.881Z,96850.81
2023-04-28T23:13:08.361Z,96847.66
2023-04-28T23:15:53.708Z,96846.63
2023-04-28T23:18:39.689Z,96846.94
2023-04-28T23:21:25.546Z,96842.19
2023-04-28T23:24:11.291Z,96840.06
2023-04-28T23:26:56.800Z,96835.31
2023-04-28T23:29:43.538Z,96830.81
2023-04-28T23:32:29.199Z,96823.41
2023-04-28T23:35:15.454Z,96821.56
2023-04-28T23:38:01.596Z,96821.88
2023-04-28T23:40:47.243Z,96820.59
2023-04-28T23:43:32.691Z,96817.41
2023-04-28T23:46:18.890Z,96817.16
2023-04-28T23:49:04.850Z,96812.97
2023-04-28T23:51:50.295Z,96816.16
2023-04-28T23:54:35.934Z,96814.91
2023-04-28T23:57:21.742Z,96805.63
